createdAt,value
2022-08-28T00:00:18.462Z,1011.91
2022-08-28T00:00:53.779Z,1011.91
2022-08-28T00:01:29.098Z,1011.90
2022-08-28T00:02:04.099Z,1011.95
2022-08-28T00:02:39.457Z,1011.92
2022-08-28T00:03:15.504Z,1011.93
2022-08-28T00:03:49.921Z,1011.94
2022-08-28T00:04:25.368Z,1011.94
2022-08-28T00:05:00.612Z,1011.94
2022-08-28T00:05:35.562Z,1011.92
2022-08-28T00:06:10.993Z,1011.90
2022-08-28T00:06:46.008Z,1011.92
2022-08-28T00:07:21.222Z,1011.89
2022-08-28T00:07:56.424Z,1011.90
2022-08-28T00:08:31.642Z,1011.87
2022-08-28T00:09:06.853Z,1011.92
2022-08-28T00:09:41.959Z,1011.88
2022-08-28T00:10:17.280Z,1011.88
2022-08-28T00:10:52.583Z,1011.88
2022-08-28T00:11:27.795Z,1011.89
2022-08-28T00:12:03.300Z,1011.88
2022-08-28T00:12:38.891Z,1011.90
2022-08-28T00:13:14.206Z,1011.89
2022-08-28T00:13:49.415Z,1011.89
2022-08-28T00:14:24.733Z,1011.90
2022-08-28T00:14:59.929Z,1011.88
2022-08-28T00:15:35.459Z,1011.88
2022-08-28T00:16:10.656Z,1011.90
2022-08-28T00:16:45.906Z,1011.87
2022-08-28T00:17:21.219Z,1011.87
2022-08-28T00:17:56.952Z,1011.90
2022-08-28T00:18:32.078Z,1011.87
2022-08-28T00:19:07.486Z,1011.90
2022-08-28T00:19:42.785Z,1011.91
2022-08-28T00:20:18.091Z,1011.87
2022-08-28T00:20:53.228Z,1011.89
2022-08-28T00:21:28.241Z,1011.90
2022-08-28T00:22:03.447Z,1011.93
2022-08-28T00:22:38.249Z,1011.89
2022-08-28T00:23:13.561Z,1011.87
2022-08-28T00:23:48.743Z,1011.89
2022-08-28T00:24:23.959Z,1011.90
2022-08-28T00:24:59.088Z,1011.87
2022-08-28T00:25:34.316Z,1011.90
2022-08-28T00:26:09.715Z,1011.93
2022-08-28T00:26:44.929Z,1011.93
2022-08-28T00:27:20.118Z,1011.94
2022-08-28T00:27:55.511Z,1011.91
2022-08-28T00:28:30.339Z,1011.94
2022-08-28T00:29:05.656Z,1011.93
2022-08-28T00:29:41.156Z,1011.92
2022-08-28T00:30:18.329Z,1011.91
2022-08-28T00:30:53.535Z,1011.92
2022-08-28T00:31:29.000Z,1011.92
2022-08-28T00:32:04.100Z,1011.88
2022-08-28T00:32:39.211Z,1011.89
2022-08-28T00:33:14.343Z,1011.89
2022-08-28T00:33:49.535Z,1011.89
2022-08-28T00:34:33.060Z,1011.88
2022-08-28T00:35:00.123Z,1011.87
2022-08-28T00:35:35.761Z,1011.86
2022-08-28T00:36:10.678Z,1011.83
2022-08-28T00:36:46.085Z,1011.83
2022-08-28T00:37:24.572Z,1011.86
2022-08-28T00:37:57.196Z,1011.85
2022-08-28T00:38:32.426Z,1011.85
2022-08-28T00:39:07.735Z,1011.87
2022-08-28T00:39:42.832Z,1011.85
2022-08-28T00:40:17.883Z,1011.83
2022-08-28T00:40:53.414Z,1011.82
2022-08-28T00:41:28.736Z,1011.82
2022-08-28T00:42:04.129Z,1011.85
2022-08-28T00:42:39.410Z,1011.84
2022-08-28T00:43:14.343Z,1011.86
2022-08-28T00:43:49.431Z,1011.86
2022-08-28T00:44:24.934Z,1011.84
2022-08-28T00:45:00.229Z,1011.90
2022-08-28T00:45:39.508Z,1011.87
2022-08-28T00:46:10.600Z,1011.89
2022-08-28T00:46:46.081Z,1011.88
2022-08-28T00:47:21.691Z,1011.86
2022-08-28T00:47:56.999Z,1011.89
2022-08-28T00:48:32.513Z,1011.88
2022-08-28T00:49:07.935Z,1011.87
2022-08-28T00:49:43.246Z,1011.86
2022-08-28T00:50:18.665Z,1011.87
2022-08-28T00:50:53.875Z,1011.87
2022-08-28T00:51:29.203Z,1011.86
2022-08-28T00:52:04.519Z,1011.87
2022-08-28T00:52:40.140Z,1011.84
2022-08-28T00:53:15.346Z,1011.87
2022-08-28T00:53:50.435Z,1011.86
2022-08-28T00:54:25.656Z,1011.86
2022-08-28T00:55:01.348Z,1011.86
2022-08-28T00:55:36.673Z,1011.86
2022-08-28T00:56:13.125Z,1011.85
2022-08-28T00:56:47.088Z,1011.83
2022-08-28T00:57:22.194Z,1011.87
2022-08-28T00:57:57.198Z,1011.83
2022-08-28T00:58:32.425Z,1011.85
2022-08-28T00:59:07.683Z,1011.89
2022-08-28T00:59:42.779Z,1011.88
2022-08-28T01:00:18.016Z,1011.85
2022-08-28T01:00:53.433Z,1011.87
2022-08-28T01:01:28.589Z,1011.89
2022-08-28T01:02:03.841Z,1011.88
2022-08-28T01:02:39.034Z,1011.87
2022-08-28T01:03:14.277Z,1011.93
2022-08-28T01:03:49.309Z,1011.88
2022-08-28T01:04:24.624Z,1011.89
2022-08-28T01:04:59.970Z,1011.93
2022-08-28T01:05:35.599Z,1011.94
2022-08-28T01:06:11.206Z,1011.90
2022-08-28T01:06:46.440Z,1011.91
2022-08-28T01:07:21.589Z,1011.90
2022-08-28T01:07:56.882Z,1011.90
2022-08-28T01:08:31.988Z,1011.96
2022-08-28T01:09:07.127Z,1011.91
2022-08-28T01:09:42.345Z,1011.94
2022-08-28T01:10:17.662Z,1011.90
2022-08-28T01:10:52.889Z,1011.94
2022-08-28T01:11:28.203Z,1011.92
2022-08-28T01:12:03.716Z,1011.91
2022-08-28T01:12:39.030Z,1011.90
2022-08-28T01:13:14.259Z,1011.90
2022-08-28T01:13:49.385Z,1011.91
2022-08-28T01:14:24.802Z,1011.89
2022-08-28T01:15:00.120Z,1011.92
2022-08-28T01:15:35.598Z,1011.90
2022-08-28T01:16:10.718Z,1011.90
2022-08-28T01:16:45.893Z,1011.90
2022-08-28T01:17:21.211Z,1011.91
2022-08-28T01:17:56.508Z,1011.89
2022-08-28T01:18:31.618Z,1011.91
2022-08-28T01:19:06.734Z,1011.89
2022-08-28T01:19:42.034Z,1011.87
2022-08-28T01:20:17.155Z,1011.91
2022-08-28T01:20:52.375Z,1011.91
2022-08-28T01:21:27.682Z,1011.89
2022-08-28T01:22:02.783Z,1011.93
2022-08-28T01:22:38.038Z,1011.93
2022-08-28T01:23:13.350Z,1011.92
2022-08-28T01:23:48.461Z,1011.96
2022-08-28T01:24:23.909Z,1011.93
2022-08-28T01:24:58.945Z,1011.94
2022-08-28T01:25:34.170Z,1011.95
2022-08-28T01:26:10.973Z,1011.96
2022-08-28T01:26:44.612Z,1011.97
2022-08-28T01:27:19.737Z,1011.98
2022-08-28T01:27:55.025Z,1011.94
2022-08-28T01:28:30.642Z,1011.97
2022-08-28T01:29:05.864Z,1012.00
2022-08-28T01:29:41.205Z,1011.99
2022-08-28T01:30:16.410Z,1012.01
2022-08-28T01:30:51.852Z,1011.97
2022-08-28T01:31:27.131Z,1012.00
2022-08-28T01:32:02.364Z,1012.00
2022-08-28T01:32:37.385Z,1012.03
2022-08-28T01:33:12.603Z,1012.03
2022-08-28T01:33:47.911Z,1011.98
2022-08-28T01:34:23.227Z,1011.98
2022-08-28T01:34:58.432Z,1011.99
2022-08-28T01:35:33.960Z,1011.96
2022-08-28T01:36:09.177Z,1011.98
2022-08-28T01:36:44.494Z,1012.01
2022-08-28T01:37:19.804Z,1012.01
2022-08-28T01:37:55.007Z,1012.01
2022-08-28T01:38:30.522Z,1012.02
2022-08-28T01:39:05.741Z,1012.01
2022-08-28T01:39:40.636Z,1012.01
2022-08-28T01:40:16.023Z,1012.03
2022-08-28T01:40:51.092Z,1012.03
2022-08-28T01:41:26.508Z,1012.04
2022-08-28T01:42:01.703Z,1012.02
2022-08-28T01:42:36.835Z,1012.05
2022-08-28T01:43:12.244Z,1012.03
2022-08-28T01:43:47.556Z,1012.03
2022-08-28T01:44:22.679Z,1012.05
2022-08-28T01:44:57.779Z,1012.07
2022-08-28T01:45:33.122Z,1012.05
2022-08-28T01:46:08.394Z,1012.06
2022-08-28T01:46:43.607Z,1012.06
2022-08-28T01:47:19.006Z,1012.06
2022-08-28T01:47:54.094Z,1012.04
2022-08-28T01:48:29.339Z,1012.07
2022-08-28T01:49:04.840Z,1012.04
2022-08-28T01:49:40.354Z,1012.08
2022-08-28T01:50:15.358Z,1012.08
2022-08-28T01:50:50.673Z,1012.08
2022-08-28T01:51:25.786Z,1012.08
2022-08-28T01:52:01.302Z,1012.08
2022-08-28T01:52:36.808Z,1012.09
2022-08-28T01:53:12.477Z,1012.08
2022-08-28T01:53:47.233Z,1012.12
2022-08-28T01:54:22.355Z,1012.11
2022-08-28T01:54:57.645Z,1012.07
2022-08-28T01:55:32.990Z,1012.09
2022-08-28T01:56:07.997Z,1012.08
2022-08-28T01:56:43.110Z,1012.15
2022-08-28T01:57:18.233Z,1012.12
2022-08-28T01:57:53.557Z,1012.12
2022-08-28T01:58:28.893Z,1012.11
2022-08-28T01:59:04.082Z,1012.15
2022-08-28T01:59:39.172Z,1012.13
2022-08-28T02:00:14.486Z,1012.17
2022-08-28T02:00:50.113Z,1012.14
2022-08-28T02:01:25.597Z,1012.13
2022-08-28T02:02:00.584Z,1012.15
2022-08-28T02:02:35.533Z,1012.17
2022-08-28T02:03:10.841Z,1012.15
2022-08-28T02:03:46.500Z,1012.17
2022-08-28T02:04:21.635Z,1012.14
2022-08-28T02:04:56.872Z,1012.16
2022-08-28T02:05:31.895Z,1012.15
2022-08-28T02:06:07.100Z,1012.12
2022-08-28T02:06:42.223Z,1012.16
2022-08-28T02:07:17.518Z,1012.17
2022-08-28T02:07:52.862Z,1012.17
2022-08-28T02:08:28.300Z,1012.16
2022-08-28T02:09:03.207Z,1012.17
2022-08-28T02:09:38.470Z,1012.15
2022-08-28T02:10:13.966Z,1012.17
2022-08-28T02:10:49.602Z,1012.17
2022-08-28T02:11:24.714Z,1012.19
2022-08-28T02:11:59.797Z,1012.22
2022-08-28T02:12:34.937Z,1012.17
2022-08-28T02:13:10.346Z,1012.17
2022-08-28T02:13:45.661Z,1012.16
2022-08-28T02:14:20.591Z,1012.16
2022-08-28T02:14:55.785Z,1012.21
2022-08-28T02:15:31.480Z,1012.21
2022-08-28T02:16:06.919Z,1012.21
2022-08-28T02:16:42.259Z,1012.21
2022-08-28T02:17:17.475Z,1012.21
2022-08-28T02:17:52.805Z,1012.23
2022-08-28T02:18:28.145Z,1012.22
2022-08-28T02:19:03.478Z,1012.22
2022-08-28T02:19:38.579Z,1012.23
2022-08-28T02:20:14.276Z,1012.22
2022-08-28T02:20:49.534Z,1012.23
2022-08-28T02:21:24.756Z,1012.22
2022-08-28T02:21:59.965Z,1012.22
2022-08-28T02:22:35.282Z,1012.23
2022-08-28T02:23:10.680Z,1012.21
2022-08-28T02:23:45.997Z,1012.24
2022-08-28T02:24:21.714Z,1012.25
2022-08-28T02:24:57.029Z,1012.24
2022-08-28T02:25:32.558Z,1012.22
2022-08-28T02:26:07.859Z,1012.25
2022-08-28T02:26:42.983Z,1012.26
2022-08-28T02:27:18.523Z,1012.24
2022-08-28T02:27:53.745Z,1012.25
2022-08-28T02:28:29.070Z,1012.24
2022-08-28T02:29:04.271Z,1012.23
2022-08-28T02:29:39.665Z,1012.22
2022-08-28T02:30:14.784Z,1012.24
2022-08-28T02:30:50.019Z,1012.22
2022-08-28T02:31:25.505Z,1012.19
2022-08-28T02:32:00.625Z,1012.22
2022-08-28T02:32:35.929Z,1012.23
2022-08-28T02:33:11.150Z,1012.22
2022-08-28T02:33:46.557Z,1012.20
2022-08-28T02:34:21.610Z,1012.22
2022-08-28T02:34:56.610Z,1012.24
2022-08-28T02:35:31.753Z,1012.23
2022-08-28T02:36:07.152Z,1012.22
2022-08-28T02:36:42.359Z,1012.21
2022-08-28T02:37:17.885Z,1012.25
2022-08-28T02:37:54.544Z,1012.28
2022-08-28T02:38:28.774Z,1012.24
2022-08-28T02:39:04.169Z,1012.25
2022-08-28T02:39:39.288Z,1012.25
2022-08-28T02:40:14.488Z,1012.25
2022-08-28T02:40:49.691Z,1012.23
2022-08-28T02:41:25.020Z,1012.21
2022-08-28T02:42:00.634Z,1012.21
2022-08-28T02:42:36.033Z,1012.26
2022-08-28T02:43:11.336Z,1012.26
2022-08-28T02:43:46.853Z,1012.23
2022-08-28T02:44:22.068Z,1012.26
2022-08-28T02:44:57.265Z,1012.25
2022-08-28T02:45:32.391Z,1012.27
2022-08-28T02:46:07.764Z,1012.27
2022-08-28T02:46:42.716Z,1012.27
2022-08-28T02:47:18.032Z,1012.25
2022-08-28T02:47:53.335Z,1012.29
2022-08-28T02:48:29.161Z,1012.27
2022-08-28T02:49:04.572Z,1012.25
2022-08-28T02:49:39.676Z,1012.27
2022-08-28T02:50:14.897Z,1012.25
2022-08-28T02:50:50.122Z,1012.24
2022-08-28T02:51:25.239Z,1012.25
2022-08-28T02:52:00.454Z,1012.24
2022-08-28T02:52:36.076Z,1012.25
2022-08-28T02:53:11.495Z,1012.23
2022-08-28T02:53:46.891Z,1012.24
2022-08-28T02:54:21.987Z,1012.22
2022-08-28T02:54:56.984Z,1012.22
2022-08-28T02:55:34.222Z,1012.24
2022-08-28T02:56:07.634Z,1012.22
2022-08-28T02:56:42.837Z,1012.23
2022-08-28T02:57:18.255Z,1012.19
2022-08-28T02:57:53.460Z,1012.20
2022-08-28T02:58:28.471Z,1012.22
2022-08-28T02:59:03.897Z,1012.24
2022-08-28T02:59:39.309Z,1012.27
2022-08-28T03:00:14.707Z,1012.24
2022-08-28T03:00:49.922Z,1012.29
2022-08-28T03:01:25.207Z,1012.28
2022-08-28T03:02:00.422Z,1012.24
2022-08-28T03:02:36.025Z,1012.27
2022-08-28T03:03:11.144Z,1012.25
2022-08-28T03:03:46.547Z,1012.23
2022-08-28T03:04:22.004Z,1012.27
2022-08-28T03:04:57.391Z,1012.25
2022-08-28T03:05:32.620Z,1012.26
2022-08-28T03:06:07.637Z,1012.26
2022-08-28T03:06:42.916Z,1012.28
2022-08-28T03:07:18.130Z,1012.25
2022-08-28T03:07:53.431Z,1012.28
2022-08-28T03:08:28.549Z,1012.30
2022-08-28T03:09:03.798Z,1012.26
2022-08-28T03:09:39.013Z,1012.31
2022-08-28T03:10:14.101Z,1012.28
2022-08-28T03:10:49.613Z,1012.31
2022-08-28T03:11:24.951Z,1012.29
2022-08-28T03:12:00.294Z,1012.31
2022-08-28T03:12:35.306Z,1012.29
2022-08-28T03:13:10.514Z,1012.33
2022-08-28T03:13:45.506Z,1012.31
2022-08-28T03:14:21.232Z,1012.34
2022-08-28T03:14:56.432Z,1012.38
2022-08-28T03:15:31.885Z,1012.34
2022-08-28T03:16:07.024Z,1012.35
2022-08-28T03:16:42.201Z,1012.37
2022-08-28T03:17:17.254Z,1012.37
2022-08-28T03:17:52.546Z,1012.40
2022-08-28T03:18:27.965Z,1012.36
2022-08-28T03:19:03.479Z,1012.33
2022-08-28T03:19:38.714Z,1012.36
2022-08-28T03:20:13.881Z,1012.33
2022-08-28T03:20:49.310Z,1012.33
2022-08-28T03:21:24.417Z,1012.30
2022-08-28T03:21:59.629Z,1012.30
2022-08-28T03:22:34.748Z,1012.33
2022-08-28T03:23:10.372Z,1012.31
2022-08-28T03:23:45.773Z,1012.30
2022-08-28T03:24:21.169Z,1012.32
2022-08-28T03:24:56.366Z,1012.33
2022-08-28T03:25:31.500Z,1012.31
2022-08-28T03:26:06.696Z,1012.34
2022-08-28T03:26:41.926Z,1012.36
2022-08-28T03:27:20.104Z,1012.35
2022-08-28T03:27:55.322Z,1012.35
2022-08-28T03:28:31.020Z,1012.35
2022-08-28T03:29:06.329Z,1012.39
2022-08-28T03:29:41.353Z,1012.42
2022-08-28T03:30:16.766Z,1012.41
2022-08-28T03:30:52.209Z,1012.38
2022-08-28T03:31:27.405Z,1012.39
2022-08-28T03:32:02.514Z,1012.42
2022-08-28T03:32:37.734Z,1012.45
2022-08-28T03:33:12.917Z,1012.44
2022-08-28T03:33:48.421Z,1012.46
2022-08-28T03:34:23.544Z,1012.41
2022-08-28T03:34:58.554Z,1012.39
2022-08-28T03:35:33.815Z,1012.43
2022-08-28T03:36:09.034Z,1012.41
2022-08-28T03:36:44.038Z,1012.43
2022-08-28T03:37:19.353Z,1012.43
2022-08-28T03:37:54.653Z,1012.46
2022-08-28T03:38:30.083Z,1012.49
2022-08-28T03:39:05.207Z,1012.47
2022-08-28T03:39:40.448Z,1012.48
2022-08-28T03:40:15.704Z,1012.47
2022-08-28T03:40:51.002Z,1012.48
2022-08-28T03:41:26.335Z,1012.49
2022-08-28T03:42:01.544Z,1012.48
2022-08-28T03:42:36.760Z,1012.49
2022-08-28T03:43:11.974Z,1012.51
2022-08-28T03:43:47.197Z,1012.53
2022-08-28T03:44:22.511Z,1012.52
2022-08-28T03:44:57.816Z,1012.50
2022-08-28T03:45:33.419Z,1012.51
2022-08-28T03:46:08.721Z,1012.51
2022-08-28T03:46:44.144Z,1012.52
2022-08-28T03:47:19.254Z,1012.50
2022-08-28T03:47:54.657Z,1012.49
2022-08-28T03:48:29.892Z,1012.47
2022-08-28T03:49:05.091Z,1012.48
2022-08-28T03:49:40.219Z,1012.47
2022-08-28T03:50:15.368Z,1012.51
2022-08-28T03:50:50.600Z,1012.50
2022-08-28T03:51:29.803Z,1012.50
2022-08-28T03:52:01.207Z,1012.48
2022-08-28T03:52:36.618Z,1012.54
2022-08-28T03:53:11.832Z,1012.48
2022-08-28T03:53:47.163Z,1012.49
2022-08-28T03:54:22.166Z,1012.50
2022-08-28T03:54:57.273Z,1012.51
2022-08-28T03:55:32.315Z,1012.51
2022-08-28T03:56:07.423Z,1012.49
2022-08-28T03:56:42.538Z,1012.53
2022-08-28T03:57:17.756Z,1012.52
2022-08-28T03:57:52.949Z,1012.51
2022-08-28T03:58:28.080Z,1012.52
2022-08-28T03:59:03.301Z,1012.53
2022-08-28T03:59:38.765Z,1012.53
2022-08-28T04:00:13.863Z,1012.53
2022-08-28T04:00:49.092Z,1012.58
2022-08-28T04:01:24.506Z,1012.55
2022-08-28T04:01:59.626Z,1012.57
2022-08-28T04:02:35.174Z,1012.55
2022-08-28T04:03:10.444Z,1012.55
2022-08-28T04:03:45.595Z,1012.53
2022-08-28T04:04:20.750Z,1012.55
2022-08-28T04:04:56.071Z,1012.53
2022-08-28T04:05:31.309Z,1012.57
2022-08-28T04:06:06.433Z,1012.58
2022-08-28T04:06:41.646Z,1012.54
2022-08-28T04:07:16.742Z,1012.61
2022-08-28T04:07:51.853Z,1012.53
2022-08-28T04:08:27.307Z,1012.54
2022-08-28T04:09:02.407Z,1012.54
2022-08-28T04:09:37.623Z,1012.51
2022-08-28T04:10:12.825Z,1012.54
2022-08-28T04:10:48.202Z,1012.50
2022-08-28T04:11:23.808Z,1012.49
2022-08-28T04:11:59.311Z,1012.51
2022-08-28T04:12:35.217Z,1012.51
2022-08-28T04:13:09.635Z,1012.51
2022-08-28T04:13:51.983Z,1012.52
2022-08-28T04:14:27.300Z,1012.54
2022-08-28T04:15:02.495Z,1012.56
2022-08-28T04:15:37.988Z,1012.59
2022-08-28T04:16:13.141Z,1012.59
2022-08-28T04:16:48.014Z,1012.56
2022-08-28T04:17:23.299Z,1012.59
2022-08-28T04:17:58.491Z,1012.59
2022-08-28T04:18:33.687Z,1012.62
2022-08-28T04:19:08.977Z,1012.58
2022-08-28T04:19:44.300Z,1012.58
2022-08-28T04:20:19.607Z,1012.64
2022-08-28T04:20:54.836Z,1012.63
2022-08-28T04:21:30.173Z,1012.61
2022-08-28T04:22:05.475Z,1012.61
2022-08-28T04:22:40.468Z,1012.58
2022-08-28T04:23:15.653Z,1012.62
2022-08-28T04:23:50.785Z,1012.61
2022-08-28T04:24:25.806Z,1012.59
2022-08-28T04:25:01.086Z,1012.60
2022-08-28T04:25:36.595Z,1012.60
2022-08-28T04:26:11.882Z,1012.62
2022-08-28T04:26:47.300Z,1012.60
2022-08-28T04:27:22.776Z,1012.64
2022-08-28T04:27:58.088Z,1012.64
2022-08-28T04:28:33.516Z,1012.63
2022-08-28T04:29:08.816Z,1012.61
2022-08-28T04:29:44.170Z,1012.58
2022-08-28T04:30:19.514Z,1012.64
2022-08-28T04:30:55.115Z,1012.63
2022-08-28T04:31:32.113Z,1012.64
2022-08-28T04:32:05.604Z,1012.62
2022-08-28T04:32:40.882Z,1012.62
2022-08-28T04:33:16.369Z,1012.62
2022-08-28T04:33:51.687Z,1012.62
2022-08-28T04:34:27.097Z,1012.61
2022-08-28T04:35:02.191Z,1012.61
2022-08-28T04:35:37.405Z,1012.63
2022-08-28T04:36:12.892Z,1012.64
2022-08-28T04:36:48.108Z,1012.61
2022-08-28T04:37:23.278Z,1012.67
2022-08-28T04:37:59.084Z,1012.63
2022-08-28T04:38:33.609Z,1012.68
2022-08-28T04:39:08.852Z,1012.72
2022-08-28T04:39:43.896Z,1012.69
2022-08-28T04:40:19.227Z,1012.71
2022-08-28T04:40:54.807Z,1012.69
2022-08-28T04:41:30.012Z,1012.70
2022-08-28T04:42:05.220Z,1012.71
2022-08-28T04:42:40.314Z,1012.72
2022-08-28T04:43:15.517Z,1012.71
2022-08-28T04:43:50.825Z,1012.70
2022-08-28T04:44:26.238Z,1012.71
2022-08-28T04:45:01.446Z,1012.73
2022-08-28T04:45:36.829Z,1012.72
2022-08-28T04:46:12.012Z,1012.70
2022-08-28T04:46:48.314Z,1012.70
2022-08-28T04:47:22.179Z,1012.69
2022-08-28T04:47:57.286Z,1012.70
2022-08-28T04:48:32.774Z,1012.68
2022-08-28T04:49:07.989Z,1012.70
2022-08-28T04:49:43.397Z,1012.72
2022-08-28T04:50:18.608Z,1012.71
2022-08-28T04:50:54.035Z,1012.67
2022-08-28T04:51:29.428Z,1012.73
2022-08-28T04:52:04.625Z,1012.72
2022-08-28T04:52:39.745Z,1012.75
2022-08-28T04:53:14.821Z,1012.74
2022-08-28T04:53:50.113Z,1012.78
2022-08-28T04:54:25.424Z,1012.75
2022-08-28T04:55:00.842Z,1012.78
2022-08-28T04:55:52.267Z,1012.80
2022-08-28T04:56:11.473Z,1012.79
2022-08-28T04:56:46.883Z,1012.78
2022-08-28T04:57:21.983Z,1012.79
2022-08-28T04:57:57.586Z,1012.80
2022-08-28T04:58:32.776Z,1012.83
2022-08-28T04:59:07.977Z,1012.82
2022-08-28T04:59:43.299Z,1012.80
2022-08-28T05:00:19.102Z,1012.81
2022-08-28T05:00:54.401Z,1012.87
2022-08-28T05:01:29.955Z,1012.84
2022-08-28T05:02:05.052Z,1012.82
2022-08-28T05:02:40.288Z,1012.80
2022-08-28T05:03:15.525Z,1012.81
2022-08-28T05:03:51.032Z,1012.80
2022-08-28T05:04:26.341Z,1012.82
2022-08-28T05:05:01.854Z,1012.82
2022-08-28T05:05:36.978Z,1012.82
2022-08-28T05:06:12.071Z,1012.83
2022-08-28T05:06:47.275Z,1012.81
2022-08-28T05:07:22.372Z,1012.85
2022-08-28T05:07:57.469Z,1012.86
2022-08-28T05:08:32.471Z,1012.85
2022-08-28T05:09:07.883Z,1012.83
2022-08-28T05:09:43.243Z,1012.84
2022-08-28T05:10:18.143Z,1012.84
2022-08-28T05:10:53.194Z,1012.85
2022-08-28T05:11:34.105Z,1012.85
2022-08-28T05:12:03.928Z,1012.86
2022-08-28T05:12:38.932Z,1012.90
2022-08-28T05:13:14.115Z,1012.90
2022-08-28T05:13:49.230Z,1012.90
2022-08-28T05:14:24.626Z,1012.91
2022-08-28T05:14:59.929Z,1012.90
2022-08-28T05:15:35.236Z,1012.94
2022-08-28T05:16:10.463Z,1012.91
2022-08-28T05:16:45.983Z,1012.90
2022-08-28T05:17:20.996Z,1012.91
2022-08-28T05:17:56.226Z,1012.92
2022-08-28T05:18:31.432Z,1012.92
2022-08-28T05:19:06.731Z,1012.91
2022-08-28T05:19:41.916Z,1012.93
2022-08-28T05:20:17.194Z,1012.90
2022-08-28T05:20:52.399Z,1012.91
2022-08-28T05:21:27.677Z,1012.90
2022-08-28T05:22:03.194Z,1012.88
2022-08-28T05:22:38.107Z,1012.89
2022-08-28T05:23:13.107Z,1012.87
2022-08-28T05:23:48.304Z,1012.85
2022-08-28T05:24:23.585Z,1012.87
2022-08-28T05:24:58.806Z,1012.83
2022-08-28T05:25:34.538Z,1012.83
2022-08-28T05:26:09.828Z,1012.84
2022-08-28T05:26:48.299Z,1012.85
2022-08-28T05:27:20.616Z,1012.87
2022-08-28T05:27:55.933Z,1012.89
2022-08-28T05:28:31.261Z,1012.85
2022-08-28T05:29:06.169Z,1012.86
2022-08-28T05:29:41.389Z,1012.88
2022-08-28T05:30:16.855Z,1012.87
2022-08-28T05:30:52.169Z,1012.85
2022-08-28T05:31:27.181Z,1012.92
2022-08-28T05:32:02.384Z,1012.88
2022-08-28T05:32:37.817Z,1012.93
2022-08-28T05:33:13.000Z,1012.92
2022-08-28T05:33:48.214Z,1012.92
2022-08-28T05:34:23.514Z,1012.90
2022-08-28T05:34:58.927Z,1012.90
2022-08-28T05:35:34.249Z,1012.97
2022-08-28T05:36:09.361Z,1012.98
2022-08-28T05:36:44.597Z,1012.91
2022-08-28T05:37:19.813Z,1012.95
2022-08-28T05:37:54.802Z,1012.92
2022-08-28T05:38:30.203Z,1012.94
2022-08-28T05:39:05.387Z,1012.94
2022-08-28T05:39:40.477Z,1012.94
2022-08-28T05:40:15.726Z,1012.91
2022-08-28T05:40:51.356Z,1012.91
2022-08-28T05:41:26.873Z,1012.92
2022-08-28T05:42:02.258Z,1012.91
2022-08-28T05:42:38.968Z,1012.91
2022-08-28T05:43:12.673Z,1012.92
2022-08-28T05:43:48.068Z,1012.91
2022-08-28T05:44:23.365Z,1012.94
2022-08-28T05:44:58.358Z,1012.91
2022-08-28T05:45:33.712Z,1012.88
2022-08-28T05:46:08.947Z,1012.88
2022-08-28T05:46:44.191Z,1012.89
2022-08-28T05:47:21.649Z,1012.91
2022-08-28T05:47:55.167Z,1012.89
2022-08-28T05:48:30.481Z,1012.90
2022-08-28T05:49:09.665Z,1012.90
2022-08-28T05:49:40.561Z,1012.94
2022-08-28T05:50:15.762Z,1012.89
2022-08-28T05:50:50.769Z,1012.94
2022-08-28T05:51:26.432Z,1012.92
2022-08-28T05:52:01.810Z,1012.92
2022-08-28T05:52:37.044Z,1012.93
2022-08-28T05:53:12.311Z,1012.94
2022-08-28T05:53:47.520Z,1012.95
2022-08-28T05:54:22.628Z,1012.97
2022-08-28T05:54:57.939Z,1012.98
2022-08-28T05:55:33.164Z,1013.00
2022-08-28T05:56:08.250Z,1012.99
2022-08-28T05:56:44.172Z,1012.99
2022-08-28T05:57:19.496Z,1013.01
2022-08-28T05:57:54.689Z,1013.05
2022-08-28T05:58:29.781Z,1013.03
2022-08-28T05:59:04.957Z,1013.03
2022-08-28T05:59:40.263Z,1013.06
2022-08-28T06:00:15.571Z,1013.06
2022-08-28T06:00:51.017Z,1013.05
2022-08-28T06:01:26.358Z,1013.04
2022-08-28T06:02:04.323Z,1013.03
2022-08-28T06:02:36.901Z,1013.07
2022-08-28T06:03:12.071Z,1013.08
2022-08-28T06:03:47.326Z,1013.06
2022-08-28T06:04:22.496Z,1013.07
2022-08-28T06:04:57.963Z,1013.07
2022-08-28T06:05:33.078Z,1013.08
2022-08-28T06:06:08.577Z,1013.05
2022-08-28T06:06:44.179Z,1013.10
2022-08-28T06:07:19.605Z,1013.08
2022-08-28T06:07:54.791Z,1013.10
2022-08-28T06:08:30.100Z,1013.13
2022-08-28T06:09:05.282Z,1013.13
2022-08-28T06:09:40.394Z,1013.10
2022-08-28T06:10:15.984Z,1013.16
2022-08-28T06:10:51.095Z,1013.12
2022-08-28T06:11:26.391Z,1013.12
2022-08-28T06:12:01.959Z,1013.11
2022-08-28T06:12:36.990Z,1013.13
2022-08-28T06:13:12.090Z,1013.16
2022-08-28T06:13:47.177Z,1013.13
2022-08-28T06:14:22.180Z,1013.16
2022-08-28T06:14:57.366Z,1013.16
2022-08-28T06:15:32.400Z,1013.16
2022-08-28T06:16:07.759Z,1013.15
2022-08-28T06:16:42.912Z,1013.16
2022-08-28T06:17:20.026Z,1013.16
2022-08-28T06:17:53.404Z,1013.15
2022-08-28T06:18:28.810Z,1013.09
2022-08-28T06:19:04.101Z,1013.12
2022-08-28T06:19:41.525Z,1013.11
2022-08-28T06:20:14.657Z,1013.12
2022-08-28T06:20:50.186Z,1013.12
2022-08-28T06:21:24.975Z,1013.15
2022-08-28T06:22:00.251Z,1013.12
2022-08-28T06:22:35.365Z,1013.17
2022-08-28T06:23:10.666Z,1013.13
2022-08-28T06:23:45.959Z,1013.17
2022-08-28T06:24:21.061Z,1013.19
2022-08-28T06:24:56.340Z,1013.20
2022-08-28T06:25:31.963Z,1013.20
2022-08-28T06:26:07.075Z,1013.22
2022-08-28T06:26:42.164Z,1013.21
2022-08-28T06:27:17.680Z,1013.25
2022-08-28T06:27:52.888Z,1013.24
2022-08-28T06:28:28.389Z,1013.27
2022-08-28T06:29:03.483Z,1013.26
2022-08-28T06:29:38.780Z,1013.26
2022-08-28T06:30:14.093Z,1013.32
2022-08-28T06:31:17.772Z,1013.30
2022-08-28T06:31:26.522Z,1013.33
2022-08-28T06:31:59.865Z,1013.36
2022-08-28T06:32:35.126Z,1013.34
2022-08-28T06:33:10.334Z,1013.38
2022-08-28T06:33:45.527Z,1013.36
2022-08-28T06:34:21.032Z,1013.39
2022-08-28T06:34:56.429Z,1013.38
2022-08-28T06:35:31.878Z,1013.39
2022-08-28T06:36:06.983Z,1013.41
2022-08-28T06:36:42.080Z,1013.40
2022-08-28T06:37:17.300Z,1013.37
2022-08-28T06:37:52.298Z,1013.39
2022-08-28T06:38:27.505Z,1013.38
2022-08-28T06:39:03.112Z,1013.39
2022-08-28T06:39:38.705Z,1013.38
2022-08-28T06:40:14.078Z,1013.41
2022-08-28T06:40:49.321Z,1013.39
2022-08-28T06:41:24.437Z,1013.42
2022-08-28T06:41:59.540Z,1013.42
2022-08-28T06:42:34.959Z,1013.39
2022-08-28T06:43:10.459Z,1013.42
2022-08-28T06:43:45.447Z,1013.41
2022-08-28T06:44:20.864Z,1013.41
2022-08-28T06:44:56.140Z,1013.42
2022-08-28T06:45:31.285Z,1013.46
2022-08-28T06:46:06.989Z,1013.44
2022-08-28T06:46:41.860Z,1013.41
2022-08-28T06:47:16.952Z,1013.46
2022-08-28T06:47:52.247Z,1013.43
2022-08-28T06:48:27.490Z,1013.44
2022-08-28T06:49:02.561Z,1013.42
2022-08-28T06:49:37.746Z,1013.43
2022-08-28T06:50:13.046Z,1013.45
2022-08-28T06:50:48.485Z,1013.45
2022-08-28T06:51:24.987Z,1013.45
2022-08-28T06:51:58.594Z,1013.42
2022-08-28T06:52:33.802Z,1013.44
2022-08-28T06:53:08.686Z,1013.44
2022-08-28T06:53:44.081Z,1013.45
2022-08-28T06:54:22.658Z,1013.47
2022-08-28T06:54:55.911Z,1013.47
2022-08-28T06:55:29.804Z,1013.47
2022-08-28T06:56:04.815Z,1013.49
2022-08-28T06:56:39.817Z,1013.47
2022-08-28T06:57:14.923Z,1013.46
2022-08-28T06:57:50.108Z,1013.49
2022-08-28T06:58:25.206Z,1013.47
2022-08-28T06:59:00.618Z,1013.46
2022-08-28T06:59:35.932Z,1013.46
2022-08-28T07:00:10.933Z,1013.46
2022-08-28T07:00:46.147Z,1013.45
2022-08-28T07:01:21.497Z,1013.46
2022-08-28T07:01:56.758Z,1013.46
2022-08-28T07:02:32.157Z,1013.47
2022-08-28T07:03:07.527Z,1013.44
2022-08-28T07:03:44.225Z,1013.45
2022-08-28T07:04:18.147Z,1013.39
2022-08-28T07:04:53.355Z,1013.38
2022-08-28T07:05:28.581Z,1013.40
2022-08-28T07:06:03.910Z,1013.41
2022-08-28T07:06:39.484Z,1013.37